logo
Search for airport 
image banner adimage banner adimage banner ad
image banner ad

FAWO - Willowmore

Located in Willowmore, South Africa

ICAO - FAWO, IATA -

Data provided by Airmate  

General information

Coordinates: S33°15'47" E23°29'28"
Elevation is 2608 feet MSL.
 
View others Airports in Eastern Cape

Operational data

Special qualification required
Current time UTC:
Current local time:
Weather at : - ( 0 km )
METAR: RCSS 220750Z 09009KT 8000 -DZ FEW007 BKN012 BKN025 25/23 Q1009 NOSIG RMK A2981
View NOTAMs / SUP AIP / TFR affecting this airport [VIEW]
Communications frequencies: [VIEW]

Runways:

RWY identifierQFULength (ft)Width (ft)SurfaceLDA (ft)
07377366SAND
25183°377366SAND
1192°328166SAND
29272°328166SAND
02210066SAND
20182°210066SAND

Airport contact information

Address: Willowmore South Africa

Satellite view of FAWO